createdAt,value
2023-02-13T00:04:52.184Z,101558.97
2023-02-13T00:09:56.561Z,101561.56
2023-02-13T00:15:00.469Z,101562.56
2023-02-13T00:20:03.370Z,101573.84
2023-02-13T00:25:08.462Z,101569.34
2023-02-13T00:30:11.913Z,101574.63
2023-02-13T00:35:14.880Z,101584.41
2023-02-13T00:40:19.322Z,101582.66
2023-02-13T00:45:22.282Z,101586.31
2023-02-13T00:50:25.236Z,101579.31
2023-02-13T00:55:29.603Z,101582.88
2023-02-13T01:00:32.777Z,101585.53
2023-02-13T01:05:35.773Z,101590.88
2023-02-13T01:10:40.600Z,101594.47
2023-02-13T01:15:43.754Z,101587.28
2023-02-13T01:20:47.101Z,101578.44
2023-02-13T01:25:51.893Z,101579.38
2023-02-13T01:30:55.760Z,101582.00
2023-02-13T01:36:00.593Z,101587.19
2023-02-13T01:41:05.036Z,101586.28
2023-02-13T01:46:08.133Z,101580.16
2023-02-13T01:51:13.930Z,101592.56
2023-02-13T01:56:19.913Z,101599.66
2023-02-13T02:01:23.559Z,101589.00
2023-02-13T02:06:28.675Z,101601.38
2023-02-13T02:11:45.759Z,101589.09
2023-02-13T02:16:48.815Z,101597.91
2023-02-13T02:22:06.665Z,101600.44
2023-02-13T02:27:19.440Z,101603.19
2023-02-13T02:32:44.132Z,101608.38
2023-02-13T02:37:53.470Z,101593.56
2023-02-13T02:43:01.898Z,101596.09
2023-02-13T02:48:26.286Z,101588.22
2023-02-13T02:53:33.152Z,101592.66
2023-02-13T02:58:56.613Z,101587.28
2023-02-13T03:04:19.357Z,101600.50
2023-02-13T03:09:43.039Z,101596.16
2023-02-13T03:14:46.120Z,101585.44
2023-02-13T03:20:14.445Z,101597.84
2023-02-13T03:25:30.526Z,101585.53
2023-02-13T03:30:40.318Z,101589.94
2023-02-13T03:36:06.127Z,101597.94
2023-02-13T03:41:21.603Z,101597.03
2023-02-13T03:46:25.925Z,101593.69
2023-02-13T03:51:31.994Z,101588.44
2023-02-13T03:56:54.090Z,101590.97
2023-02-13T04:02:01.324Z,101590.91
2023-02-13T04:07:07.753Z,101576.88
2023-02-13T04:12:15.797Z,101584.69
2023-02-13T04:17:21.494Z,101585.59
2023-02-13T04:22:25.879Z,101588.31
2023-02-13T04:27:29.424Z,101596.19
2023-02-13T04:32:32.397Z,101582.25
2023-02-13T04:37:36.738Z,101581.38
2023-02-13T04:42:39.754Z,101577.88
2023-02-13T04:47:42.680Z,101583.16
2023-02-13T04:52:47.208Z,101581.41
2023-02-13T04:57:50.201Z,101583.16
2023-02-13T05:02:53.172Z,101585.72
2023-02-13T05:07:57.491Z,101591.97
2023-02-13T05:13:00.625Z,101598.13
2023-02-13T05:18:03.563Z,101600.00
2023-02-13T05:23:26.428Z,101601.66
2023-02-13T05:28:47.096Z,101594.88
2023-02-13T05:33:50.056Z,101594.91
2023-02-13T05:38:54.416Z,101595.66
2023-02-13T05:43:57.378Z,101605.47
2023-02-13T05:49:00.327Z,101603.75
2023-02-13T05:54:04.825Z,101595.06
2023-02-13T05:59:07.782Z,101599.53
2023-02-13T06:04:10.698Z,101596.06
2023-02-13T06:09:15.192Z,101597.88
2023-02-13T06:14:18.189Z,101607.53
2023-02-13T06:19:21.202Z,101596.16
2023-02-13T06:24:25.590Z,101596.22
2023-02-13T06:29:28.513Z,101595.41
2023-02-13T06:34:31.512Z,101598.03
2023-02-13T06:39:35.884Z,101605.94
2023-02-13T06:44:38.892Z,101612.97
2023-02-13T06:49:41.843Z,101612.88
2023-02-13T06:54:48.034Z,101599.69
2023-02-13T06:59:51.244Z,101599.69
2023-02-13T07:04:54.229Z,101604.91
2023-02-13T07:09:58.696Z,101614.72
2023-02-13T07:15:01.685Z,101612.09
2023-02-13T07:20:05.842Z,101622.72
2023-02-13T07:25:10.599Z,101624.63
2023-02-13T07:30:14.599Z,101625.47
2023-02-13T07:35:17.531Z,101640.38
2023-02-13T07:40:22.229Z,101644.78
2023-02-13T07:45:25.248Z,101647.41
2023-02-13T07:50:28.550Z,101664.03
2023-02-13T07:55:32.956Z,101668.41
2023-02-13T08:00:35.942Z,101679.94
2023-02-13T08:05:39.501Z,101669.38
2023-02-13T08:11:01.192Z,101672.09
2023-02-13T08:16:04.368Z,101679.03
2023-02-13T08:21:07.594Z,101685.16
2023-02-13T08:26:12.089Z,101689.38
2023-02-13T08:31:15.237Z,101686.75
2023-02-13T08:36:19.338Z,101691.94
2023-02-13T08:41:24.011Z,101693.56
2023-02-13T08:46:26.951Z,101693.53
2023-02-13T08:51:29.956Z,101696.22
2023-02-13T08:56:35.266Z,101712.81
2023-02-13T09:01:38.382Z,101723.19
2023-02-13T09:06:41.419Z,101725.50
2023-02-13T09:11:46.002Z,101719.44
2023-02-13T09:16:48.970Z,101733.94
2023-02-13T09:21:52.091Z,101732.16
2023-02-13T09:26:58.556Z,101731.28
2023-02-13T09:32:01.637Z,101741.66
2023-02-13T09:37:04.724Z,101732.81
2023-02-13T09:42:16.888Z,101744.13
2023-02-13T09:47:24.117Z,101742.31
2023-02-13T09:52:28.043Z,101740.25
2023-02-13T09:57:35.060Z,101754.00
2023-02-13T10:02:44.228Z,101745.16
2023-02-13T10:07:51.074Z,101750.00
2023-02-13T10:12:59.167Z,101745.06
2023-02-13T10:18:05.068Z,101744.94
2023-02-13T10:23:14.288Z,101750.66
2023-02-13T10:28:20.622Z,101740.50
2023-02-13T10:33:27.304Z,101741.38
2023-02-13T10:38:31.800Z,101740.22
2023-02-13T10:43:40.666Z,101739.22
2023-02-13T10:48:50.175Z,101732.03
2023-02-13T10:53:59.770Z,101730.44
2023-02-13T10:59:20.255Z,101736.59
2023-02-13T11:04:23.386Z,101736.38
2023-02-13T11:09:26.798Z,101732.72
2023-02-13T11:14:31.219Z,101744.00
2023-02-13T11:19:35.796Z,101740.94
2023-02-13T11:24:41.361Z,101734.88
2023-02-13T11:29:56.242Z,101728.19
2023-02-13T11:35:00.923Z,101731.59
2023-02-13T11:40:22.831Z,101728.22
2023-02-13T11:45:27.738Z,101733.91
2023-02-13T11:50:31.800Z,101719.16
2023-02-13T11:55:35.531Z,101727.09
2023-02-13T12:00:41.808Z,101715.81
2023-02-13T12:06:01.078Z,101698.34
2023-02-13T12:11:05.657Z,101701.16
2023-02-13T12:16:15.623Z,101691.97
2023-02-13T12:21:26.766Z,101679.19
2023-02-13T12:26:33.065Z,101679.97
2023-02-13T12:31:43.138Z,101680.25
2023-02-13T12:36:51.838Z,101664.06
2023-02-13T12:42:02.256Z,101662.25
2023-02-13T12:47:12.552Z,101652.41
2023-02-13T12:52:22.599Z,101649.28
2023-02-13T12:57:34.237Z,101642.91
2023-02-13T13:02:58.142Z,101628.28
2023-02-13T13:08:11.623Z,101628.34
2023-02-13T13:13:19.208Z,101621.78
2023-02-13T13:18:30.594Z,101614.88
2023-02-13T13:23:34.180Z,101594.28
2023-02-13T13:28:39.974Z,101586.84
2023-02-13T13:33:45.986Z,101584.69
2023-02-13T13:38:54.250Z,101572.31
2023-02-13T13:44:05.247Z,101557.56
2023-02-13T13:49:14.140Z,101542.88
2023-02-13T13:54:21.699Z,101539.06
2023-02-13T13:59:39.462Z,101530.16
2023-02-13T14:05:01.311Z,101523.03
2023-02-13T14:10:04.435Z,101517.59
2023-02-13T14:15:27.584Z,101509.28
2023-02-13T14:20:39.148Z,101501.22
2023-02-13T14:25:42.269Z,101496.53
2023-02-13T14:30:45.481Z,101491.34
2023-02-13T14:36:00.337Z,101493.31
2023-02-13T14:41:04.331Z,101480.00
2023-02-13T14:46:15.751Z,101474.00
2023-02-13T14:51:28.807Z,101468.66
2023-02-13T14:56:32.691Z,101487.94
2023-02-13T15:01:37.372Z,101475.81
2023-02-13T15:06:43.056Z,101475.03
2023-02-13T15:11:45.977Z,101468.53
2023-02-13T15:16:51.788Z,101469.53
2023-02-13T15:21:57.911Z,101460.53
2023-02-13T15:27:03.054Z,101473.44
2023-02-13T15:32:20.800Z,101463.06
2023-02-13T15:37:25.883Z,101454.56
2023-02-13T15:42:28.904Z,101461.41
2023-02-13T15:47:32.961Z,101450.56
2023-02-13T15:52:39.422Z,101440.06
2023-02-13T15:57:42.666Z,101442.44
2023-02-13T16:02:47.873Z,101444.69
2023-02-13T16:07:53.778Z,101442.84
2023-02-13T16:12:57.884Z,101442.16
2023-02-13T16:18:00.975Z,101439.06
2023-02-13T16:23:08.491Z,101437.53
2023-02-13T16:28:18.233Z,101434.59
2023-02-13T16:33:23.260Z,101440.56
2023-02-13T16:38:33.534Z,101437.88
2023-02-13T16:43:41.395Z,101440.25
2023-02-13T16:48:45.326Z,101446.38
2023-02-13T16:53:57.649Z,101438.72
2023-02-13T16:59:05.881Z,101440.34
2023-02-13T17:04:16.740Z,101448.06
2023-02-13T17:09:21.251Z,101443.38
2023-02-13T17:14:24.286Z,101447.63
2023-02-13T17:19:28.567Z,101450.38
2023-02-13T17:24:33.074Z,101451.59
2023-02-13T17:29:36.034Z,101446.59
2023-02-13T17:34:39.008Z,101454.66
2023-02-13T17:39:43.387Z,101457.91
2023-02-13T17:44:46.572Z,101464.16
2023-02-13T17:49:50.267Z,101466.16
2023-02-13T17:54:54.632Z,101469.22
2023-02-13T17:59:59.344Z,101481.78
2023-02-13T18:05:02.985Z,101474.28
2023-02-13T18:10:08.451Z,101480.44
2023-02-13T18:15:11.963Z,101490.84
2023-02-13T18:20:15.880Z,101492.75
2023-02-13T18:25:20.783Z,101493.63
2023-02-13T18:30:23.810Z,101505.16
2023-02-13T18:35:26.795Z,101506.22
2023-02-13T18:40:31.281Z,101500.78
2023-02-13T18:45:34.351Z,101506.16
2023-02-13T18:50:39.620Z,101506.59
2023-02-13T18:55:43.986Z,101512.88
2023-02-13T19:00:46.914Z,101521.03
2023-02-13T19:05:49.890Z,101517.38
2023-02-13T19:10:54.267Z,101518.75
2023-02-13T19:15:57.305Z,101523.59
2023-02-13T19:21:00.789Z,101532.91
2023-02-13T19:26:07.519Z,101525.56
2023-02-13T19:31:11.787Z,101524.22
2023-02-13T19:36:17.305Z,101527.53
2023-02-13T19:41:22.822Z,101531.94
2023-02-13T19:46:27.145Z,101536.47
2023-02-13T19:51:31.227Z,101534.72
2023-02-13T19:56:37.135Z,101536.75
2023-02-13T20:01:41.728Z,101531.19
2023-02-13T20:06:45.575Z,101530.38
2023-02-13T20:11:50.720Z,101531.63
2023-02-13T20:16:53.734Z,101541.50
2023-02-13T20:21:56.857Z,101544.34
2023-02-13T20:27:01.248Z,101551.03
2023-02-13T20:32:04.350Z,101551.50
2023-02-13T20:37:07.601Z,101559.75
2023-02-13T20:42:11.998Z,101560.50
2023-02-13T20:47:15.019Z,101555.75
2023-02-13T20:52:18.061Z,101562.91
2023-02-13T20:57:22.404Z,101550.25
2023-02-13T21:02:25.402Z,101554.47
2023-02-13T21:07:29.873Z,101556.84
2023-02-13T21:12:35.265Z,101550.63
2023-02-13T21:17:38.203Z,101551.72
2023-02-13T21:22:41.190Z,101563.00
2023-02-13T21:27:45.583Z,101568.75
2023-02-13T21:32:48.561Z,101565.06
2023-02-13T21:37:51.570Z,101563.72
2023-02-13T21:42:56.000Z,101562.97
2023-02-13T21:47:59.012Z,101568.34
2023-02-13T21:53:02.017Z,101569.78
2023-02-13T21:58:06.362Z,101562.94
2023-02-13T22:03:09.409Z,101573.16
2023-02-13T22:08:12.511Z,101568.56
2023-02-13T22:13:16.953Z,101564.94
2023-02-13T22:18:19.916Z,101557.09
2023-02-13T22:23:22.871Z,101560.00
2023-02-13T22:28:27.248Z,101553.09
2023-02-13T22:33:30.259Z,101563.63
2023-02-13T22:38:33.938Z,101570.25
2023-02-13T22:43:38.699Z,101560.34
2023-02-13T22:48:42.130Z,101569.84
2023-02-13T22:53:45.559Z,101572.59
2023-02-13T22:58:49.882Z,101569.34
2023-02-13T23:03:53.512Z,101564.22
2023-02-13T23:08:57.245Z,101567.53
2023-02-13T23:14:01.677Z,101555.03
2023-02-13T23:19:04.893Z,101554.56
2023-02-13T23:24:08.229Z,101557.81
2023-02-13T23:29:12.582Z,101564.94
2023-02-13T23:34:15.531Z,101563.22
2023-02-13T23:39:18.547Z,101540.44
2023-02-13T23:44:22.889Z,101535.94
2023-02-13T23:49:25.931Z,101535.03
2023-02-13T23:54:28.877Z,101532.25
2023-02-13T23:59:33.662Z,101523.63
